sensor_id;sensor_type;location;lat;lon;timestamp;pressure;altitude;pressure_sealevel;temperature;humidity
13312;BME280;34033;48.672;9.376;2023-11-22T00:00:43;98798.28;;;9.47;96.71
13312;BME280;34033;48.672;9.376;2023-11-22T00:03:08;98794.22;;;9.45;97.41
13312;BME280;34033;48.672;9.376;2023-11-22T00:05:34;98797.38;;;9.43;97.81
13312;BME280;34033;48.672;9.376;2023-11-22T00:07:59;98797.50;;;9.50;97.82
13312;BME280;34033;48.672;9.376;2023-11-22T00:10:24;98798.00;;;9.56;97.44
13312;BME280;34033;48.672;9.376;2023-11-22T00:12:50;98798.47;;;9.61;96.52
13312;BME280;34033;48.672;9.376;2023-11-22T00:15:15;98795.81;;;9.69;96.32
13312;BME280;34033;48.672;9.376;2023-11-22T00:17:44;98793.50;;;9.74;96.23
13312;BME280;34033;48.672;9.376;2023-11-22T00:20:10;98791.56;;;9.78;95.97
13312;BME280;34033;48.672;9.376;2023-11-22T00:22:35;98796.00;;;9.83;95.01
13312;BME280;34033;48.672;9.376;2023-11-22T00:25:01;98795.28;;;9.86;94.71
13312;BME280;34033;48.672;9.376;2023-11-22T00:27:31;98794.50;;;9.89;94.84
13312;BME280;34033;48.672;9.376;2023-11-22T00:29:59;98794.13;;;9.90;94.14
13312;BME280;34033;48.672;9.376;2023-11-22T00:32:24;98797.72;;;9.91;93.97
13312;BME280;34033;48.672;9.376;2023-11-22T00:34:51;98793.31;;;9.90;93.64
13312;BME280;34033;48.672;9.376;2023-11-22T00:37:16;98800.03;;;9.85;94.43
13312;BME280;34033;48.672;9.376;2023-11-22T00:39:41;98805.47;;;9.75;95.49
13312;BME280;34033;48.672;9.376;2023-11-22T00:42:10;98810.66;;;9.50;97.59
13312;BME280;34033;48.672;9.376;2023-11-22T00:44:35;98814.59;;;9.23;99.33
13312;BME280;34033;48.672;9.376;2023-11-22T00:47:03;98830.91;;;8.78;100.00
13312;BME280;34033;48.672;9.376;2023-11-22T00:49:29;98823.63;;;8.51;100.00
13312;BME280;34033;48.672;9.376;2023-11-22T00:51:54;98832.50;;;8.38;100.00
13312;BME280;34033;48.672;9.376;2023-11-22T00:54:20;98831.81;;;8.25;100.00
13312;BME280;34033;48.672;9.376;2023-11-22T00:56:46;98827.75;;;8.22;100.00
13312;BME280;34033;48.672;9.376;2023-11-22T00:59:11;98838.56;;;7.89;100.00
13312;BME280;34033;48.672;9.376;2023-11-22T01:01:37;98837.91;;;7.61;100.00
13312;BME280;34033;48.672;9.376;2023-11-22T01:04:02;98847.69;;;7.54;100.00
13312;BME280;34033;48.672;9.376;2023-11-22T01:06:28;98847.69;;;7.54;100.00
13312;BME280;34033;48.672;9.376;2023-11-22T01:08:54;98851.28;;;7.55;100.00
13312;BME280;34033;48.672;9.376;2023-11-22T01:11:19;98846.22;;;7.76;100.00
13312;BME280;34033;48.672;9.376;2023-11-22T01:13:45;98853.78;;;7.60;100.00
13312;BME280;34033;48.672;9.376;2023-11-22T01:16:11;98855.41;;;7.45;100.00
13312;BME280;34033;48.672;9.376;2023-11-22T01:18:38;98857.38;;;7.45;100.00
13312;BME280;34033;48.672;9.376;2023-11-22T01:21:04;98875.06;;;7.52;100.00
13312;BME280;34033;48.672;9.376;2023-11-22T01:23:30;98873.09;;;7.37;100.00
13312;BME280;34033;48.672;9.376;2023-11-22T01:25:57;98882.94;;;7.19;100.00
13312;BME280;34033;48.672;9.376;2023-11-22T01:28:23;98891.03;;;7.24;100.00
13312;BME280;34033;48.672;9.376;2023-11-22T01:30:49;98902.22;;;7.12;100.00
13312;BME280;34033;48.672;9.376;2023-11-22T01:33:15;98913.06;;;7.01;100.00
13312;BME280;34033;48.672;9.376;2023-11-22T01:35:40;98901.44;;;6.84;100.00
13312;BME280;34033;48.672;9.376;2023-11-22T01:38:06;98905.16;;;6.88;100.00
13312;BME280;34033;48.672;9.376;2023-11-22T01:40:33;98908.19;;;6.83;100.00
13312;BME280;34033;48.672;9.376;2023-11-22T01:42:59;98910.34;;;6.61;100.00
13312;BME280;34033;48.672;9.376;2023-11-22T01:45:24;98910.13;;;6.54;100.00
13312;BME280;34033;48.672;9.376;2023-11-22T01:47:50;98918.34;;;6.51;100.00
13312;BME280;34033;48.672;9.376;2023-11-22T01:50:16;98929.47;;;6.51;100.00
13312;BME280;34033;48.672;9.376;2023-11-22T01:52:42;98928.19;;;6.60;100.00
13312;BME280;34033;48.672;9.376;2023-11-22T01:55:09;98929.34;;;6.59;100.00
13312;BME280;34033;48.672;9.376;2023-11-22T01:57:35;98937.44;;;6.52;100.00
13312;BME280;34033;48.672;9.376;2023-11-22T02:00:04;98938.34;;;6.56;100.00
13312;BME280;34033;48.672;9.376;2023-11-22T02:02:36;98941.13;;;6.56;100.00
13312;BME280;34033;48.672;9.376;2023-11-22T02:05:01;98946.94;;;6.51;100.00
13312;BME280;34033;48.672;9.376;2023-11-22T02:07:27;98950.84;;;6.62;100.00
13312;BME280;34033;48.672;9.376;2023-11-22T02:09:53;98950.13;;;6.78;100.00
13312;BME280;34033;48.672;9.376;2023-11-22T02:12:19;98952.66;;;6.83;100.00
13312;BME280;34033;48.672;9.376;2023-11-22T02:14:45;98953.84;;;6.69;99.19
13312;BME280;34033;48.672;9.376;2023-11-22T02:17:10;98960.59;;;6.84;100.00
13312;BME280;34033;48.672;9.376;2023-11-22T02:19:36;98971.47;;;6.61;97.14
13312;BME280;34033;48.672;9.376;2023-11-22T02:22:02;98974.19;;;6.74;97.96
13312;BME280;34033;48.672;9.376;2023-11-22T02:24:27;98972.22;;;6.74;97.56
13312;BME280;34033;48.672;9.376;2023-11-22T02:26:53;98976.59;;;6.47;94.32
13312;BME280;34033;48.672;9.376;2023-11-22T02:29:18;98975.22;;;6.41;94.71
13312;BME280;34033;48.672;9.376;2023-11-22T02:31:43;98980.31;;;6.27;95.08
13312;BME280;34033;48.672;9.376;2023-11-22T02:34:09;98976.66;;;6.11;96.24
13312;BME280;34033;48.672;9.376;2023-11-22T02:36:34;98989.81;;;6.02;97.18
13312;BME280;34033;48.672;9.376;2023-11-22T02:38:59;98985.66;;;5.96;97.01
13312;BME280;34033;48.672;9.376;2023-11-22T02:41:27;98983.69;;;5.96;96.82
13312;BME280;34033;48.672;9.376;2023-11-22T02:43:55;98984.72;;;6.04;97.06
13312;BME280;34033;48.672;9.376;2023-11-22T02:46:20;98987.28;;;5.97;95.14
13312;BME280;34033;48.672;9.376;2023-11-22T02:48:45;98996.06;;;5.99;96.17
13312;BME280;34033;48.672;9.376;2023-11-22T02:51:11;98997.13;;;6.06;97.30
13312;BME280;34033;48.672;9.376;2023-11-22T02:53:36;99007.84;;;5.96;96.03
13312;BME280;34033;48.672;9.376;2023-11-22T02:56:02;99003.91;;;5.97;96.23
13312;BME280;34033;48.672;9.376;2023-11-22T02:58:29;99009.72;;;6.04;95.64
13312;BME280;34033;48.672;9.376;2023-11-22T03:00:55;99014.78;;;6.02;95.16
13312;BME280;34033;48.672;9.376;2023-11-22T03:03:22;99014.06;;;5.80;93.58
13312;BME280;34033;48.672;9.376;2023-11-22T03:05:49;99019.25;;;5.70;93.06
13312;BME280;34033;48.672;9.376;2023-11-22T03:08:15;99023.75;;;5.74;93.72
13312;BME280;34033;48.672;9.376;2023-11-22T03:10:41;99033.75;;;5.88;95.19
13312;BME280;34033;48.672;9.376;2023-11-22T03:13:07;99030.97;;;5.88;94.57
13312;BME280;34033;48.672;9.376;2023-11-22T03:15:34;99034.41;;;5.84;94.94
13312;BME280;34033;48.672;9.376;2023-11-22T03:17:59;99027.69;;;5.73;94.64
13312;BME280;34033;48.672;9.376;2023-11-22T03:20:25;99030.47;;;5.85;95.85
13312;BME280;34033;48.672;9.376;2023-11-22T03:22:50;99042.72;;;5.72;93.86
13312;BME280;34033;48.672;9.376;2023-11-22T03:25:16;99043.53;;;5.73;93.52
13312;BME280;34033;48.672;9.376;2023-11-22T03:27:41;99051.69;;;5.57;90.93
13312;BME280;34033;48.672;9.376;2023-11-22T03:30:07;99051.47;;;5.50;91.05
13312;BME280;34033;48.672;9.376;2023-11-22T03:32:40;99057.72;;;5.26;90.86
13312;BME280;34033;48.672;9.376;2023-11-22T03:35:06;99061.84;;;5.20;91.37
13312;BME280;34033;48.672;9.376;2023-11-22T03:37:32;99063.63;;;5.04;90.77
13312;BME280;34033;48.672;9.376;2023-11-22T03:39:57;99076.59;;;4.91;90.02
13312;BME280;34033;48.672;9.376;2023-11-22T03:42:23;99079.91;;;4.85;90.40
13312;BME280;34033;48.672;9.376;2023-11-22T03:44:48;99073.56;;;4.84;90.88
13312;BME280;34033;48.672;9.376;2023-11-22T03:47:15;99079.16;;;4.76;90.20
13312;BME280;34033;48.672;9.376;2023-11-22T03:49:41;99085.41;;;4.64;89.95
13312;BME280;34033;48.672;9.376;2023-11-22T03:52:06;99088.56;;;4.63;90.16
13312;BME280;34033;48.672;9.376;2023-11-22T03:54:33;99092.72;;;4.69;90.30
13312;BME280;34033;48.672;9.376;2023-11-22T03:56:59;99100.56;;;4.67;90.49
13312;BME280;34033;48.672;9.376;2023-11-22T03:59:24;99118.19;;;4.62;90.44
13312;BME280;34033;48.672;9.376;2023-11-22T04:01:49;99113.13;;;4.64;90.72
13312;BME280;34033;48.672;9.376;2023-11-22T04:04:16;99119.44;;;4.44;91.63
13312;BME280;34033;48.672;9.376;2023-11-22T04:06:41;99134.72;;;4.50;93.89
13312;BME280;34033;48.672;9.376;2023-11-22T04:09:06;99138.63;;;4.49;93.96
13312;BME280;34033;48.672;9.376;2023-11-22T04:11:33;99146.34;;;4.64;95.83
13312;BME280;34033;48.672;9.376;2023-11-22T04:14:00;99137.47;;;4.79;95.44
13312;BME280;34033;48.672;9.376;2023-11-22T04:16:25;99133.34;;;4.85;93.23
13312;BME280;34033;48.672;9.376;2023-11-22T04:18:50;99142.28;;;4.91;90.01
13312;BME280;34033;48.672;9.376;2023-11-22T04:21:16;99154.75;;;5.06;90.00
13312;BME280;34033;48.672;9.376;2023-11-22T04:23:41;99155.81;;;5.13;88.72
13312;BME280;34033;48.672;9.376;2023-11-22T04:26:07;99163.19;;;5.09;87.61
13312;BME280;34033;48.672;9.376;2023-11-22T04:28:33;99158.84;;;4.79;85.82
13312;BME280;34033;48.672;9.376;2023-11-22T04:30:58;99162.91;;;5.02;89.13
13312;BME280;34033;48.672;9.376;2023-11-22T04:33:24;99168.88;;;5.13;88.59
13312;BME280;34033;48.672;9.376;2023-11-22T04:35:50;99164.19;;;5.25;88.47
13312;BME280;34033;48.672;9.376;2023-11-22T04:38:16;99169.25;;;5.02;84.88
13312;BME280;34033;48.672;9.376;2023-11-22T04:40:41;99191.97;;;4.96;85.54
13312;BME280;34033;48.672;9.376;2023-11-22T04:43:09;99177.84;;;5.30;89.79
13312;BME280;34033;48.672;9.376;2023-11-22T04:45:35;99171.56;;;5.00;83.48
13312;BME280;34033;48.672;9.376;2023-11-22T04:48:00;99177.03;;;5.30;88.76
13312;BME280;34033;48.672;9.376;2023-11-22T04:50:25;99175.47;;;5.82;95.96
13312;BME280;34033;48.672;9.376;2023-11-22T04:52:51;99176.72;;;6.18;83.19
13312;BME280;34033;48.672;9.376;2023-11-22T04:55:17;99179.44;;;6.51;84.99
13312;BME280;34033;48.672;9.376;2023-11-22T04:57:43;99191.50;;;6.55;86.83
13312;BME280;34033;48.672;9.376;2023-11-22T05:00:08;99184.84;;;6.11;76.66
13312;BME280;34033;48.672;9.376;2023-11-22T05:02:34;99196.22;;;6.30;82.44
13312;BME280;34033;48.672;9.376;2023-11-22T05:05:00;99192.38;;;6.22;80.13
13312;BME280;34033;48.672;9.376;2023-11-22T05:07:25;99207.47;;;6.34;82.02
13312;BME280;34033;48.672;9.376;2023-11-22T05:09:51;99205.09;;;5.91;78.41
13312;BME280;34033;48.672;9.376;2023-11-22T05:12:16;99213.78;;;5.47;77.76
13312;BME280;34033;48.672;9.376;2023-11-22T05:14:41;99217.28;;;5.36;80.68
13312;BME280;34033;48.672;9.376;2023-11-22T05:17:08;99215.53;;;5.52;82.38
13312;BME280;34033;48.672;9.376;2023-11-22T05:19:34;99221.06;;;5.52;79.87
13312;BME280;34033;48.672;9.376;2023-11-22T05:21:59;99226.94;;;5.30;78.34
13312;BME280;34033;48.672;9.376;2023-11-22T05:24:26;99224.53;;;4.99;79.16
13312;BME280;34033;48.672;9.376;2023-11-22T05:26:51;99240.59;;;4.85;79.82
13312;BME280;34033;48.672;9.376;2023-11-22T05:29:17;99236.63;;;4.94;79.08
13312;BME280;34033;48.672;9.376;2023-11-22T05:31:42;99235.75;;;5.32;83.97
13312;BME280;34033;48.672;9.376;2023-11-22T05:34:07;99237.47;;;5.45;81.36
13312;BME280;34033;48.672;9.376;2023-11-22T05:36:33;99237.06;;;5.55;80.56
13312;BME280;34033;48.672;9.376;2023-11-22T05:38:59;99242.03;;;5.41;77.16
13312;BME280;34033;48.672;9.376;2023-11-22T05:41:25;99249.50;;;5.49;80.89
13312;BME280;34033;48.672;9.376;2023-11-22T05:43:53;99243.94;;;5.70;80.73
13312;BME280;34033;48.672;9.376;2023-11-22T05:46:22;99243.13;;;5.69;79.52
13312;BME280;34033;48.672;9.376;2023-11-22T05:48:52;99242.81;;;5.71;79.77
13312;BME280;34033;48.672;9.376;2023-11-22T05:51:18;99241.34;;;5.94;79.55
13312;BME280;34033;48.672;9.376;2023-11-22T05:53:44;99241.78;;;5.96;76.40
13312;BME280;34033;48.672;9.376;2023-11-22T05:56:09;99248.84;;;5.94;74.34
13312;BME280;34033;48.672;9.376;2023-11-22T05:58:35;99253.84;;;6.00;75.43
13312;BME280;34033;48.672;9.376;2023-11-22T06:01:06;99265.94;;;5.54;73.94
13312;BME280;34033;48.672;9.376;2023-11-22T06:03:32;99264.19;;;5.70;76.73
13312;BME280;34033;48.672;9.376;2023-11-22T06:05:58;99260.66;;;5.82;76.68
13312;BME280;34033;48.672;9.376;2023-11-22T06:08:23;99262.13;;;5.88;74.73
13312;BME280;34033;48.672;9.376;2023-11-22T06:10:49;99284.28;;;6.09;77.63
13312;BME280;34033;48.672;9.376;2023-11-22T06:13:14;99284.22;;;5.97;74.87
13312;BME280;34033;48.672;9.376;2023-11-22T06:15:40;99289.78;;;5.97;73.09
13312;BME280;34033;48.672;9.376;2023-11-22T06:18:05;99287.06;;;6.09;73.77
13312;BME280;34033;48.672;9.376;2023-11-22T06:20:31;99295.41;;;5.88;73.75
13312;BME280;34033;48.672;9.376;2023-11-22T06:22:56;99295.50;;;5.71;71.50
13312;BME280;34033;48.672;9.376;2023-11-22T06:25:21;99305.16;;;5.94;76.38
13312;BME280;34033;48.672;9.376;2023-11-22T06:27:47;99307.53;;;5.54;72.95
13312;BME280;34033;48.672;9.376;2023-11-22T06:30:12;99314.13;;;5.41;76.10
13312;BME280;34033;48.672;9.376;2023-11-22T06:32:39;99321.69;;;5.32;74.04
13312;BME280;34033;48.672;9.376;2023-11-22T06:35:05;99324.09;;;5.13;74.12
13312;BME280;34033;48.672;9.376;2023-11-22T06:37:33;99325.69;;;5.14;79.44
13312;BME280;34033;48.672;9.376;2023-11-22T06:39:59;99330.28;;;5.10;75.60
13312;BME280;34033;48.672;9.376;2023-11-22T06:42:25;99334.25;;;5.29;80.12
13312;BME280;34033;48.672;9.376;2023-11-22T06:44:50;99332.78;;;5.32;76.81
13312;BME280;34033;48.672;9.376;2023-11-22T06:47:18;99331.50;;;5.59;79.42
13312;BME280;34033;48.672;9.376;2023-11-22T06:49:43;99337.81;;;5.68;76.32
13312;BME280;34033;48.672;9.376;2023-11-22T06:52:09;99343.19;;;5.35;74.58
13312;BME280;34033;48.672;9.376;2023-11-22T06:54:34;99346.47;;;5.37;74.68
13312;BME280;34033;48.672;9.376;2023-11-22T06:57:00;99345.66;;;5.66;76.45
13312;BME280;34033;48.672;9.376;2023-11-22T06:59:25;99338.22;;;5.78;75.27
13312;BME280;34033;48.672;9.376;2023-11-22T07:01:51;99350.03;;;5.96;75.29
13312;BME280;34033;48.672;9.376;2023-11-22T07:04:16;99351.72;;;6.09;74.37
13312;BME280;34033;48.672;9.376;2023-11-22T07:06:42;99348.13;;;6.09;73.49
13312;BME280;34033;48.672;9.376;2023-11-22T07:09:09;99339.16;;;6.12;73.78
13312;BME280;34033;48.672;9.376;2023-11-22T07:11:35;99354.50;;;5.89;72.18
13312;BME280;34033;48.672;9.376;2023-11-22T07:14:02;99359.38;;;5.92;72.89
13312;BME280;34033;48.672;9.376;2023-11-22T07:16:29;99353.38;;;5.90;72.17
13312;BME280;34033;48.672;9.376;2023-11-22T07:18:54;99353.69;;;5.88;73.74
13312;BME280;34033;48.672;9.376;2023-11-22T07:21:19;99353.50;;;5.84;72.29
13312;BME280;34033;48.672;9.376;2023-11-22T07:23:46;99359.63;;;5.49;71.39
13312;BME280;34033;48.672;9.376;2023-11-22T07:26:12;99354.78;;;5.66;74.26
13312;BME280;34033;48.672;9.376;2023-11-22T07:28:39;99359.63;;;5.49;71.40
13312;BME280;34033;48.672;9.376;2023-11-22T07:31:07;99363.06;;;5.45;71.64
13312;BME280;34033;48.672;9.376;2023-11-22T07:33:33;99372.44;;;5.24;71.14
13312;BME280;34033;48.672;9.376;2023-11-22T07:35:58;99380.94;;;5.27;73.63
13312;BME280;34033;48.672;9.376;2023-11-22T07:38:24;99383.66;;;5.36;71.88
13312;BME280;34033;48.672;9.376;2023-11-22T07:40:50;99400.72;;;5.09;72.24
13312;BME280;34033;48.672;9.376;2023-11-22T07:43:16;99410.88;;;4.96;70.46
13312;BME280;34033;48.672;9.376;2023-11-22T07:45:41;99410.72;;;4.92;70.73
13312;BME280;34033;48.672;9.376;2023-11-22T07:48:10;99415.75;;;4.99;70.57
13312;BME280;34033;48.672;9.376;2023-11-22T07:50:37;99417.97;;;5.14;70.61
13312;BME280;34033;48.672;9.376;2023-11-22T07:53:03;99426.25;;;5.31;71.73
13312;BME280;34033;48.672;9.376;2023-11-22T07:55:30;99431.59;;;5.36;72.35
13312;BME280;34033;48.672;9.376;2023-11-22T07:57:55;99424.84;;;5.55;74.91
13312;BME280;34033;48.672;9.376;2023-11-22T08:00:21;99413.88;;;5.67;69.73
13312;BME280;34033;48.672;9.376;2023-11-22T08:02:46;99412.09;;;5.92;68.67
13312;BME280;34033;48.672;9.376;2023-11-22T08:05:12;99413.75;;;6.13;71.40
13312;BME280;34033;48.672;9.376;2023-11-22T08:07:40;99419.91;;;6.19;68.57
13312;BME280;34033;48.672;9.376;2023-11-22T08:10:07;99417.28;;;6.22;69.64
13312;BME280;34033;48.672;9.376;2023-11-22T08:12:48;99417.41;;;6.26;70.86
13312;BME280;34033;48.672;9.376;2023-11-22T08:15:15;99422.56;;;6.15;68.25
13312;BME280;34033;48.672;9.376;2023-11-22T08:17:42;99424.44;;;6.23;70.49
13312;BME280;34033;48.672;9.376;2023-11-22T08:20:08;99422.28;;;6.29;70.24
13312;BME280;34033;48.672;9.376;2023-11-22T08:22:41;99423.78;;;6.26;70.32
13312;BME280;34033;48.672;9.376;2023-11-22T08:25:08;99422.28;;;6.29;71.80
13312;BME280;34033;48.672;9.376;2023-11-22T08:27:33;99430.16;;;5.68;71.48
13312;BME280;34033;48.672;9.376;2023-11-22T08:29:59;99423.91;;;5.51;72.69
13312;BME280;34033;48.672;9.376;2023-11-22T08:32:30;99427.47;;;5.51;76.10
13312;BME280;34033;48.672;9.376;2023-11-22T08:34:56;99427.94;;;5.62;75.54
13312;BME280;34033;48.672;9.376;2023-11-22T08:37:21;99432.22;;;5.80;75.13
13312;BME280;34033;48.672;9.376;2023-11-22T08:39:47;99440.81;;;5.96;75.72
13312;BME280;34033;48.672;9.376;2023-11-22T08:42:12;99439.41;;;5.90;73.18
13312;BME280;34033;48.672;9.376;2023-11-22T08:44:38;99430.31;;;6.01;74.10
13312;BME280;34033;48.672;9.376;2023-11-22T08:47:03;99432.72;;;6.11;73.84
13312;BME280;34033;48.672;9.376;2023-11-22T08:49:29;99442.63;;;6.21;74.17
13312;BME280;34033;48.672;9.376;2023-11-22T08:51:56;99429.63;;;6.34;72.33
13312;BME280;34033;48.672;9.376;2023-11-22T08:54:21;99428.25;;;6.19;71.04
13312;BME280;34033;48.672;9.376;2023-11-22T08:56:47;99434.09;;;6.26;74.90
13312;BME280;34033;48.672;9.376;2023-11-22T08:59:12;99433.47;;;6.41;73.76
13312;BME280;34033;48.672;9.376;2023-11-22T09:01:38;99433.94;;;6.43;72.30
13312;BME280;34033;48.672;9.376;2023-11-22T09:04:03;99429.00;;;6.49;71.54
13312;BME280;34033;48.672;9.376;2023-11-22T09:06:30;99425.22;;;6.33;69.81
13312;BME280;34033;48.672;9.376;2023-11-22T09:08:56;99433.38;;;6.29;67.57
13312;BME280;34033;48.672;9.376;2023-11-22T09:11:21;99439.75;;;6.29;68.88
13312;BME280;34033;48.672;9.376;2023-11-22T09:13:48;99423.66;;;6.44;70.35
13312;BME280;34033;48.672;9.376;2023-11-22T09:16:15;99420.00;;;6.31;67.17
13312;BME280;34033;48.672;9.376;2023-11-22T09:18:42;99420.13;;;6.14;70.23
13312;BME280;34033;48.672;9.376;2023-11-22T09:21:08;99421.25;;;6.13;72.10
13312;BME280;34033;48.672;9.376;2023-11-22T09:23:34;99419.91;;;6.19;71.12
13312;BME280;34033;48.672;9.376;2023-11-22T09:26:01;99425.22;;;6.12;67.80
13312;BME280;34033;48.672;9.376;2023-11-22T09:28:26;99426.47;;;6.35;68.30
13312;BME280;34033;48.672;9.376;2023-11-22T09:30:52;99429.06;;;6.61;70.15
13312;BME280;34033;48.672;9.376;2023-11-22T09:33:18;99436.09;;;6.58;64.93
13312;BME280;34033;48.672;9.376;2023-11-22T09:35:45;99426.44;;;6.44;64.84
13312;BME280;34033;48.672;9.376;2023-11-22T09:38:11;99435.72;;;6.27;65.81
13312;BME280;34033;48.672;9.376;2023-11-22T09:43:05;99432.31;;;6.42;67.01
13312;BME280;34033;48.672;9.376;2023-11-22T09:45:31;99434.56;;;6.49;67.43
13312;BME280;34033;48.672;9.376;2023-11-22T09:47:56;99438.22;;;6.41;69.80
13312;BME280;34033;48.672;9.376;2023-11-22T09:56:19;99457.72;;;6.32;71.13
13312;BME280;34033;48.672;9.376;2023-11-22T09:58:45;99463.19;;;6.20;72.13
13312;BME280;34033;48.672;9.376;2023-11-22T10:01:13;99465.53;;;6.39;72.17
13312;BME280;34033;48.672;9.376;2023-11-22T10:03:39;99471.50;;;6.49;71.46
13312;BME280;34033;48.672;9.376;2023-11-22T10:06:06;99479.06;;;6.40;70.22
13312;BME280;34033;48.672;9.376;2023-11-22T10:08:32;99482.44;;;6.46;70.81
13312;BME280;34033;48.672;9.376;2023-11-22T10:10:58;99485.31;;;6.58;69.82
13312;BME280;34033;48.672;9.376;2023-11-22T10:13:24;99497.78;;;6.73;68.46
13312;BME280;34033;48.672;9.376;2023-11-22T10:15:50;99497.91;;;6.55;68.29
13312;BME280;34033;48.672;9.376;2023-11-22T10:18:19;99492.63;;;6.62;69.07
13312;BME280;34033;48.672;9.376;2023-11-22T10:20:46;99492.56;;;6.50;68.84
13312;BME280;34033;48.672;9.376;2023-11-22T10:23:14;99494.03;;;6.27;68.28
13312;BME280;34033;48.672;9.376;2023-11-22T10:25:50;99503.84;;;5.86;69.37
13312;BME280;34033;48.672;9.376;2023-11-22T10:28:20;99499.88;;;6.05;72.81
13312;BME280;34033;48.672;9.376;2023-11-22T10:30:47;99498.72;;;6.06;72.22
13312;BME280;34033;48.672;9.376;2023-11-22T10:33:13;99500.03;;;6.29;72.25
13312;BME280;34033;48.672;9.376;2023-11-22T10:35:46;99496.81;;;6.27;69.96
13312;BME280;34033;48.672;9.376;2023-11-22T10:38:14;99507.03;;;6.35;72.39
13312;BME280;34033;48.672;9.376;2023-11-22T10:40:40;99509.59;;;6.19;71.66
13312;BME280;34033;48.672;9.376;2023-11-22T10:43:06;99501.16;;;6.37;71.54
13312;BME280;34033;48.672;9.376;2023-11-22T10:45:33;99499.91;;;6.25;69.61
13312;BME280;34033;48.672;9.376;2023-11-22T10:48:00;99506.66;;;5.78;70.31
13312;BME280;34033;48.672;9.376;2023-11-22T10:50:25;99499.50;;;5.77;71.73
13312;BME280;34033;48.672;9.376;2023-11-22T10:52:52;99507.25;;;6.01;75.66
13312;BME280;34033;48.672;9.376;2023-11-22T10:55:20;99502.34;;;5.98;73.16
13312;BME280;34033;48.672;9.376;2023-11-22T10:57:50;99500.44;;;6.19;72.11
13312;BME280;34033;48.672;9.376;2023-11-22T11:00:19;99506.69;;;6.37;72.39
13312;BME280;34033;48.672;9.376;2023-11-22T11:02:51;99517.91;;;6.19;71.28
13312;BME280;34033;48.672;9.376;2023-11-22T11:05:21;99508.34;;;6.08;73.50
13312;BME280;34033;48.672;9.376;2023-11-22T11:08:00;99510.06;;;6.21;72.79
13312;BME280;34033;48.672;9.376;2023-11-22T11:10:27;99507.53;;;6.37;72.70
13312;BME280;34033;48.672;9.376;2023-11-22T11:12:53;99511.84;;;6.47;71.58
13312;BME280;34033;48.672;9.376;2023-11-22T11:15:20;99509.16;;;6.59;69.94
13312;BME280;34033;48.672;9.376;2023-11-22T11:17:46;99507.28;;;6.72;70.05
13312;BME280;34033;48.672;9.376;2023-11-22T11:20:15;99512.25;;;6.57;67.75
13312;BME280;34033;48.672;9.376;2023-11-22T11:22:41;99520.81;;;6.52;68.93
13312;BME280;34033;48.672;9.376;2023-11-22T11:25:07;99510.50;;;6.53;68.61
13312;BME280;34033;48.672;9.376;2023-11-22T11:27:34;99513.84;;;6.67;69.11
13312;BME280;34033;48.672;9.376;2023-11-22T11:30:01;99515.03;;;6.78;68.53
13312;BME280;34033;48.672;9.376;2023-11-22T11:32:46;99511.19;;;6.91;67.65
13312;BME280;34033;48.672;9.376;2023-11-22T11:35:12;99515.94;;;6.91;69.11
13312;BME280;34033;48.672;9.376;2023-11-22T11:37:37;99512.13;;;6.95;67.31
13312;BME280;34033;48.672;9.376;2023-11-22T11:40:25;99503.53;;;6.88;65.53
13312;BME280;34033;48.672;9.376;2023-11-22T11:42:51;99507.25;;;6.92;66.77
13312;BME280;34033;48.672;9.376;2023-11-22T11:45:17;99503.56;;;7.00;65.88
13312;BME280;34033;48.672;9.376;2023-11-22T11:47:42;99509.88;;;7.09;64.92
13312;BME280;34033;48.672;9.376;2023-11-22T11:50:08;99510.47;;;7.15;65.00
13312;BME280;34033;48.672;9.376;2023-11-22T11:52:34;99528.53;;;7.09;64.77
13312;BME280;34033;48.672;9.376;2023-11-22T11:55:00;99525.25;;;7.07;65.77
13312;BME280;34033;48.672;9.376;2023-11-22T11:57:26;99541.03;;;6.82;64.92
13312;BME280;34033;48.672;9.376;2023-11-22T11:59:51;99542.03;;;6.78;63.95
13312;BME280;34033;48.672;9.376;2023-11-22T12:02:18;99542.16;;;6.81;65.44
13312;BME280;34033;48.672;9.376;2023-11-22T12:04:45;99540.94;;;6.70;63.54
13312;BME280;34033;48.672;9.376;2023-11-22T12:07:11;99542.91;;;6.69;64.30
13312;BME280;34033;48.672;9.376;2023-11-22T12:09:38;99551.13;;;6.66;64.95
13312;BME280;34033;48.672;9.376;2023-11-22T12:12:03;99549.53;;;6.56;66.41
13312;BME280;34033;48.672;9.376;2023-11-22T12:14:29;99563.28;;;6.23;68.10
13312;BME280;34033;48.672;9.376;2023-11-22T12:16:54;99563.09;;;6.28;66.17
13312;BME280;34033;48.672;9.376;2023-11-22T12:19:24;99561.41;;;6.45;66.53
13312;BME280;34033;48.672;9.376;2023-11-22T12:21:50;99572.44;;;6.24;65.90
13312;BME280;34033;48.672;9.376;2023-11-22T12:24:16;99571.34;;;6.46;66.92
13312;BME280;34033;48.672;9.376;2023-11-22T12:26:46;99580.03;;;6.44;66.04
13312;BME280;34033;48.672;9.376;2023-11-22T12:29:12;99592.19;;;6.60;65.80
13312;BME280;34033;48.672;9.376;2023-11-22T12:31:44;99582.50;;;6.66;65.43
13312;BME280;34033;48.672;9.376;2023-11-22T12:34:12;99582.75;;;6.74;66.59
13312;BME280;34033;48.672;9.376;2023-11-22T12:36:37;99595.19;;;6.47;63.26
13312;BME280;34033;48.672;9.376;2023-11-22T12:39:07;99594.38;;;6.46;65.40
13312;BME280;34033;48.672;9.376;2023-11-22T12:41:33;99597.50;;;6.45;65.62
13312;BME280;34033;48.672;9.376;2023-11-22T12:44:07;99586.63;;;6.60;66.53
13312;BME280;34033;48.672;9.376;2023-11-22T12:46:50;99593.72;;;6.49;64.57
13312;BME280;34033;48.672;9.376;2023-11-22T12:49:21;99578.78;;;6.33;64.50
13312;BME280;34033;48.672;9.376;2023-11-22T12:51:51;99573.59;;;6.52;66.14
13312;BME280;34033;48.672;9.376;2023-11-22T12:54:17;99577.81;;;6.58;65.88
13312;BME280;34033;48.672;9.376;2023-11-22T12:56:49;99574.44;;;6.74;65.13
13312;BME280;34033;48.672;9.376;2023-11-22T12:59:15;99579.13;;;6.82;65.33
13312;BME280;34033;48.672;9.376;2023-11-22T13:01:41;99571.38;;;6.08;64.91
13312;BME280;34033;48.672;9.376;2023-11-22T13:04:06;99563.19;;;5.65;65.75
13312;BME280;34033;48.672;9.376;2023-11-22T13:06:32;99566.50;;;5.50;67.36
13312;BME280;34033;48.672;9.376;2023-11-22T13:08:57;99559.25;;;5.66;70.27
13312;BME280;34033;48.672;9.376;2023-11-22T13:11:23;99563.94;;;5.82;68.71
13312;BME280;34033;48.672;9.376;2023-11-22T13:13:49;99568.00;;;5.94;67.11